createdAt,value
2023-05-10T00:03:37.134Z,23.63
2023-05-10T00:08:49.085Z,25.73
2023-05-10T00:13:53.219Z,25.42
2023-05-10T00:18:57.149Z,23.90
2023-05-10T00:23:58.649Z,26.95
2023-05-10T00:29:00.839Z,29.98
2023-05-10T00:34:02.464Z,28.40
2023-05-10T00:39:04.654Z,29.60
2023-05-10T00:44:06.380Z,30.50
2023-05-10T00:49:07.870Z,28.00
2023-05-10T00:54:12.070Z,29.17
2023-05-10T00:59:13.548Z,30.75
2023-05-10T01:04:15.763Z,31.20
2023-05-10T01:09:17.222Z,30.02
2023-05-10T01:14:20.767Z,29.80
2023-05-10T01:19:29.081Z,30.60
2023-05-10T01:24:55.273Z,31.17
2023-05-10T01:30:14.659Z,31.77
2023-05-10T01:35:18.726Z,27.80
2023-05-10T01:40:31.280Z,25.80
2023-05-10T01:45:46.568Z,23.98
2023-05-10T01:50:51.964Z,24.25
2023-05-10T01:55:56.151Z,25.75
2023-05-10T02:01:01.699Z,22.60
2023-05-10T02:06:04.508Z,26.63
2023-05-10T02:11:06.725Z,27.63
2023-05-10T02:16:08.493Z,26.13
2023-05-10T02:21:11.332Z,25.35
2023-05-10T02:26:14.827Z,30.02
2023-05-10T02:31:16.931Z,26.35
2023-05-10T02:36:21.010Z,27.88
2023-05-10T02:41:24.159Z,26.40
2023-05-10T02:46:25.838Z,26.58
2023-05-10T02:51:32.630Z,24.73
2023-05-10T02:56:36.798Z,24.98
2023-05-10T03:01:38.353Z,27.17
2023-05-10T03:06:40.772Z,27.77
2023-05-10T03:12:02.900Z,24.10
2023-05-10T03:17:12.600Z,24.20
2023-05-10T03:22:18.880Z,24.17
2023-05-10T03:32:23.755Z,28.08
2023-05-10T03:37:25.245Z,28.13
2023-05-10T03:42:26.696Z,25.30
2023-05-10T03:47:28.264Z,25.33
2023-05-10T03:52:29.765Z,25.27
2023-05-10T03:57:31.245Z,25.95
2023-05-10T04:02:32.830Z,24.30
2023-05-10T04:07:34.492Z,26.40
2023-05-10T04:12:35.971Z,25.92
2023-05-10T04:17:37.561Z,24.77
2023-05-10T04:22:39.237Z,25.90
2023-05-10T04:27:40.672Z,18.55
2023-05-10T04:32:42.214Z,21.38
2023-05-10T04:37:44.151Z,24.60
2023-05-10T04:42:45.575Z,24.35
2023-05-10T04:47:47.017Z,24.48
2023-05-10T04:52:48.482Z,26.20
2023-05-10T04:57:49.951Z,22.45
2023-05-10T05:02:51.445Z,20.60
2023-05-10T05:07:53.083Z,19.92
2023-05-10T05:12:54.515Z,22.75
2023-05-10T05:17:56.087Z,23.45
2023-05-10T05:22:57.577Z,22.65
2023-05-10T05:27:59.046Z,22.73
2023-05-10T05:33:00.632Z,23.10
2023-05-10T05:38:02.179Z,23.95
2023-05-10T05:43:03.577Z,24.48
2023-05-10T05:48:05.615Z,24.27
2023-05-10T05:53:07.110Z,25.20
2023-05-10T05:58:08.523Z,23.00
2023-05-10T06:03:10.042Z,22.95
2023-05-10T06:08:11.696Z,23.05
2023-05-10T06:13:13.246Z,22.60
2023-05-10T06:18:14.748Z,23.58
2023-05-10T06:23:16.352Z,22.08
2023-05-10T06:28:17.866Z,24.23
2023-05-10T06:33:19.376Z,26.45
2023-05-10T06:38:20.789Z,24.58
2023-05-10T06:43:22.317Z,27.88
2023-05-10T06:48:24.098Z,26.92
2023-05-10T06:53:25.544Z,26.77
2023-05-10T06:58:27.085Z,28.95
2023-05-10T07:03:28.485Z,27.90
2023-05-10T07:08:31.369Z,23.67
2023-05-10T07:13:32.955Z,26.48
2023-05-10T07:18:35.006Z,27.33
2023-05-10T07:23:36.547Z,25.88
2023-05-10T07:28:38.603Z,24.13
2023-05-10T07:33:40.963Z,27.33
2023-05-10T07:38:42.375Z,24.30
2023-05-10T07:43:43.847Z,23.00
2023-05-10T07:48:45.256Z,25.25
2023-05-10T07:53:46.686Z,25.52
2023-05-10T07:58:48.236Z,23.70
2023-05-10T08:03:50.179Z,22.63
2023-05-10T08:08:52.434Z,13.20
2023-05-10T08:13:53.971Z,15.70
2023-05-10T08:18:56.384Z,14.55
2023-05-10T08:23:58.762Z,13.95
2023-05-10T08:29:00.222Z,12.88
2023-05-10T08:34:01.774Z,9.90
2023-05-10T08:39:03.335Z,11.75
2023-05-10T08:44:06.456Z,10.10
2023-05-10T08:49:11.277Z,9.18
2023-05-10T08:54:13.512Z,8.88
2023-05-10T08:59:15.207Z,7.40
2023-05-10T09:04:16.822Z,9.10
2023-05-10T09:09:19.522Z,7.38
2023-05-10T09:14:21.397Z,9.25
2023-05-10T09:19:22.967Z,9.55
2023-05-10T09:24:30.450Z,9.43
2023-05-10T09:29:43.827Z,7.07
2023-05-10T09:34:45.954Z,6.82
2023-05-10T09:39:47.397Z,7.25
2023-05-10T09:44:49.009Z,7.85
2023-05-10T09:49:52.118Z,6.95
2023-05-10T09:54:55.423Z,7.70
2023-05-10T09:59:58.490Z,6.93
2023-05-10T10:05:04.153Z,7.68
2023-05-10T10:10:06.826Z,7.38
2023-05-10T10:15:10.470Z,8.48
2023-05-10T10:20:12.493Z,7.50
2023-05-10T10:25:16.355Z,7.13
2023-05-10T10:30:36.565Z,8.48
2023-05-10T10:35:38.368Z,8.02
2023-05-10T10:40:39.896Z,7.68
2023-05-10T10:45:42.190Z,8.43
2023-05-10T10:50:47.831Z,8.32
2023-05-10T10:55:49.812Z,8.45
2023-05-10T11:00:51.497Z,8.63
2023-05-10T11:05:59.514Z,8.35
2023-05-10T11:11:00.984Z,7.35
2023-05-10T11:16:17.909Z,7.60
2023-05-10T11:21:19.769Z,7.15
2023-05-10T11:26:26.533Z,7.35
2023-05-10T11:31:28.731Z,7.20
2023-05-10T11:36:35.095Z,7.10
2023-05-10T11:41:36.587Z,6.45
2023-05-10T11:46:38.092Z,7.00
2023-05-10T11:51:44.553Z,6.32
2023-05-10T11:56:46.477Z,6.30
2023-05-10T12:01:48.085Z,6.00
2023-05-10T12:06:49.698Z,5.68
2023-05-10T12:11:57.935Z,6.50
2023-05-10T12:16:59.397Z,5.68
2023-05-10T12:22:01.039Z,5.18
2023-05-10T12:32:46.998Z,4.97
2023-05-10T12:37:49.108Z,4.60
2023-05-10T12:42:53.087Z,5.18
2023-05-10T12:47:54.699Z,5.60
2023-05-10T12:52:56.186Z,4.75
2023-05-10T12:57:57.781Z,5.20
2023-05-10T13:02:59.218Z,4.43
2023-05-10T13:08:00.702Z,4.82
2023-05-10T13:13:02.089Z,4.65
2023-05-10T13:18:03.703Z,5.57
2023-05-10T13:23:05.383Z,6.18
2023-05-10T13:28:06.962Z,6.60
2023-05-10T13:33:08.403Z,6.10
2023-05-10T13:38:10.293Z,7.00
2023-05-10T13:43:11.842Z,7.65
2023-05-10T13:48:13.262Z,7.20
2023-05-10T13:53:15.394Z,7.38
2023-05-10T13:58:16.836Z,8.52
2023-05-10T14:03:18.515Z,6.30
2023-05-10T14:08:20.068Z,5.70
2023-05-10T14:13:21.531Z,4.13
2023-05-10T14:18:23.068Z,3.53
2023-05-10T14:23:29.476Z,4.05
2023-05-10T14:28:30.981Z,4.50
2023-05-10T14:33:32.422Z,4.68
2023-05-10T14:38:34.848Z,3.95
2023-05-10T14:43:37.268Z,3.95
2023-05-10T14:48:38.648Z,3.47
2023-05-10T14:53:40.084Z,2.97
2023-05-10T14:58:41.475Z,3.05
2023-05-10T15:03:42.883Z,3.13
2023-05-10T15:08:44.676Z,4.15
2023-05-10T15:13:46.125Z,3.13
2023-05-10T15:18:47.631Z,3.67
2023-05-10T15:23:49.097Z,4.28
2023-05-10T15:28:50.563Z,3.63
2023-05-10T15:33:52.220Z,3.45
2023-05-10T15:38:56.892Z,4.13
2023-05-10T15:44:00.690Z,3.38
2023-05-10T15:49:02.494Z,4.32
2023-05-10T15:54:07.771Z,2.90
2023-05-10T15:59:11.602Z,2.72
2023-05-10T16:04:15.766Z,3.50
2023-05-10T16:09:17.309Z,3.28
2023-05-10T16:14:20.471Z,3.10
2023-05-10T16:19:22.397Z,3.30
2023-05-10T16:24:24.144Z,4.63
2023-05-10T16:29:26.328Z,4.60
2023-05-10T16:34:27.782Z,5.10
2023-05-10T16:39:29.261Z,5.05
2023-05-10T16:44:30.710Z,5.68
2023-05-10T16:49:32.268Z,5.97
2023-05-10T16:54:33.706Z,5.38
2023-05-10T16:59:35.122Z,5.13
2023-05-10T17:04:36.691Z,5.70
2023-05-10T17:09:38.090Z,5.60
2023-05-10T17:14:40.128Z,5.40
2023-05-10T17:19:44.954Z,6.18
2023-05-10T17:24:46.549Z,5.60
2023-05-10T17:29:47.966Z,5.45
2023-05-10T17:34:49.400Z,5.57
2023-05-10T17:39:50.829Z,5.57
2023-05-10T17:44:52.354Z,5.03
2023-05-10T17:49:54.721Z,5.03
2023-05-10T17:54:56.326Z,5.88
2023-05-10T17:59:57.814Z,6.00
2023-05-10T18:05:01.323Z,5.70
2023-05-10T18:10:02.885Z,4.93
2023-05-10T18:15:04.683Z,6.10
2023-05-10T18:20:07.356Z,4.63
2023-05-10T18:25:09.290Z,4.88
2023-05-10T18:30:12.478Z,5.55
2023-05-10T18:35:14.470Z,5.30
2023-05-10T18:40:17.906Z,5.72
2023-05-10T18:45:20.199Z,6.35
2023-05-10T18:50:22.535Z,6.32
2023-05-10T18:55:25.799Z,6.20
2023-05-10T19:00:27.385Z,5.90
2023-05-10T19:05:31.621Z,6.00
2023-05-10T19:10:44.679Z,6.22
2023-05-10T19:15:52.085Z,6.75
2023-05-10T19:21:11.481Z,5.20
2023-05-10T19:26:16.140Z,5.80
2023-05-10T19:31:18.037Z,6.38
2023-05-10T19:36:28.234Z,6.30
2023-05-10T19:41:31.126Z,6.65
2023-05-10T19:46:35.812Z,6.88
2023-05-10T19:51:37.537Z,6.03
2023-05-10T19:56:39.270Z,7.10
2023-05-10T20:01:40.780Z,5.97
2023-05-10T20:06:43.554Z,7.00
2023-05-10T20:11:46.589Z,7.20
2023-05-10T20:16:48.551Z,6.57
2023-05-10T20:21:50.362Z,6.43
2023-05-10T20:26:52.025Z,6.47
2023-05-10T20:31:54.013Z,6.82
2023-05-10T20:36:58.698Z,6.38
2023-05-10T20:42:00.654Z,6.53
2023-05-10T20:47:02.579Z,7.57
2023-05-10T20:52:06.616Z,7.47
2023-05-10T20:57:11.253Z,6.88
2023-05-10T21:02:13.373Z,7.28
2023-05-10T21:07:15.363Z,7.57
2023-05-10T21:12:18.532Z,7.85
2023-05-10T21:17:21.612Z,7.68
2023-05-10T21:22:24.448Z,7.40
2023-05-10T21:27:28.546Z,8.60
2023-05-10T21:32:32.473Z,8.00
2023-05-10T21:37:34.153Z,9.45
2023-05-10T21:42:42.377Z,8.48
2023-05-10T21:47:48.620Z,9.02
2023-05-10T21:52:50.435Z,8.65
2023-05-10T21:57:51.984Z,9.82
2023-05-10T22:02:59.526Z,10.25
2023-05-10T22:08:05.715Z,10.63
2023-05-10T22:13:14.672Z,9.15
2023-05-10T22:18:19.303Z,10.45
2023-05-10T22:23:23.303Z,10.30
2023-05-10T22:28:24.897Z,10.63
2023-05-10T22:33:30.774Z,10.50
2023-05-10T22:38:35.234Z,10.90
2023-05-10T22:43:36.843Z,10.07
2023-05-10T22:48:38.531Z,10.90
2023-05-10T22:53:40.091Z,10.10
2023-05-10T22:58:41.744Z,12.65
2023-05-10T23:03:43.415Z,12.18
2023-05-10T23:08:46.416Z,11.65
2023-05-10T23:13:50.832Z,11.90
2023-05-10T23:18:52.441Z,11.70
2023-05-10T23:23:54.865Z,12.32
2023-05-10T23:28:56.460Z,12.70
2023-05-10T23:34:00.117Z,12.00
2023-05-10T23:39:02.843Z,12.52
2023-05-10T23:44:04.690Z,12.32
2023-05-10T23:49:06.320Z,12.52
2023-05-10T23:54:09.362Z,12.23
2023-05-10T23:59:11.134Z,13.43
